createdAt,value
2022-11-05T00:00:50.588Z,15.10
2022-11-05T00:03:36.437Z,13.90
2022-11-05T00:06:22.454Z,11.50
2022-11-05T00:09:08.270Z,10.30
2022-11-05T00:11:54.653Z,13.90
2022-11-05T00:14:44.543Z,13.90
2022-11-05T00:17:11.570Z,14.20
2022-11-05T00:19:38.859Z,12.40
2022-11-05T00:22:28.868Z,16.10
2022-11-05T00:25:14.136Z,15.10
2022-11-05T00:27:48.705Z,11.20
2022-11-05T00:30:18.527Z,14.20
2022-11-05T00:32:46.451Z,16.40
2022-11-05T00:35:13.685Z,14.20
2022-11-05T00:37:44.343Z,15.70
2022-11-05T00:40:14.822Z,19.30
2022-11-05T00:43:01.724Z,22.50
2022-11-05T00:45:29.989Z,17.20
2022-11-05T00:48:15.443Z,19.40
2022-11-05T00:50:42.720Z,18.50
2022-11-05T00:53:10.412Z,16.90
2022-11-05T00:55:38.381Z,18.10
2022-11-05T00:58:07.593Z,19.90
2022-11-05T01:03:04.630Z,19.00
2022-11-05T01:07:59.156Z,15.60
2022-11-05T01:10:26.486Z,15.60
2022-11-05T01:12:54.943Z,16.60
2022-11-05T01:15:22.016Z,13.50
2022-11-05T01:17:50.906Z,22.20
2022-11-05T01:20:17.982Z,16.50
2022-11-05T01:22:45.280Z,18.70
2022-11-05T01:25:12.445Z,18.40
2022-11-05T01:27:39.988Z,16.30
2022-11-05T01:30:08.749Z,19.70
2022-11-05T01:32:37.852Z,17.40
2022-11-05T01:35:06.404Z,18.30
2022-11-05T01:37:34.624Z,17.30
2022-11-05T01:40:02.270Z,22.80
2022-11-05T01:42:33.205Z,13.60
2022-11-05T01:45:20.178Z,14.40
2022-11-05T01:47:58.021Z,14.60
2022-11-05T01:50:35.047Z,19.50
2022-11-05T01:53:39.631Z,19.60
2022-11-05T01:56:16.111Z,22.10
2022-11-05T01:58:46.321Z,19.10
2022-11-05T02:01:13.173Z,22.80
2022-11-05T02:03:40.227Z,17.00
2022-11-05T02:06:09.628Z,14.30
2022-11-05T02:09:00.223Z,14.40
2022-11-05T02:11:27.371Z,13.00
2022-11-05T02:13:55.150Z,13.50
2022-11-05T02:16:38.941Z,14.10
2022-11-05T02:19:24.757Z,14.70
2022-11-05T02:22:14.654Z,13.70
2022-11-05T02:24:57.049Z,15.90
2022-11-05T02:27:51.541Z,14.00
2022-11-05T02:30:37.522Z,15.30
2022-11-05T02:33:16.126Z,14.10
2022-11-05T02:35:50.172Z,15.70
2022-11-05T02:38:39.576Z,15.70
2022-11-05T02:41:09.220Z,17.40
2022-11-05T02:43:38.113Z,17.60
2022-11-05T02:46:19.091Z,20.00
2022-11-05T02:49:04.193Z,17.20
2022-11-05T02:51:57.362Z,17.60
2022-11-05T02:54:44.596Z,17.60
2022-11-05T02:57:11.720Z,16.40
2022-11-05T02:59:38.554Z,16.30
2022-11-05T03:02:05.907Z,13.80
2022-11-05T03:04:33.357Z,16.40
2022-11-05T03:07:00.286Z,18.80
2022-11-05T03:10:00.636Z,18.60
2022-11-05T03:12:43.328Z,18.20
2022-11-05T03:15:29.315Z,18.30
2022-11-05T03:18:11.843Z,16.30
2022-11-05T03:20:52.473Z,11.30
2022-11-05T03:23:26.794Z,10.30
2022-11-05T03:26:02.973Z,8.30
2022-11-05T03:28:34.692Z,9.50
2022-11-05T03:31:01.986Z,12.60
2022-11-05T03:33:30.366Z,10.70
2022-11-05T03:36:00.101Z,12.00
2022-11-05T03:41:05.636Z,9.60
2022-11-05T03:43:35.326Z,13.10
2022-11-05T03:46:05.140Z,8.50
2022-11-05T03:48:32.483Z,10.00
2022-11-05T03:51:03.327Z,9.80
2022-11-05T03:53:32.419Z,10.00
2022-11-05T03:56:07.076Z,12.80
2022-11-05T03:58:33.838Z,11.50
2022-11-05T04:01:02.382Z,11.20
2022-11-05T04:03:36.623Z,10.50
2022-11-05T04:06:26.784Z,10.30
2022-11-05T04:09:25.670Z,8.30
2022-11-05T04:12:11.809Z,6.70
2022-11-05T04:14:39.741Z,6.50
2022-11-05T04:17:06.579Z,7.20
2022-11-05T04:20:07.597Z,9.20
2022-11-05T04:22:54.620Z,9.00
2022-11-05T04:25:21.924Z,8.70
2022-11-05T04:27:48.878Z,10.50
2022-11-05T04:30:19.407Z,8.60
2022-11-05T04:33:02.589Z,8.70
2022-11-05T04:35:40.507Z,6.70
2022-11-05T04:38:11.937Z,7.40
2022-11-05T04:40:40.288Z,9.70
2022-11-05T04:43:14.597Z,11.10
2022-11-05T04:45:42.618Z,14.30
2022-11-05T04:48:09.447Z,10.30
2022-11-05T04:50:39.358Z,8.90
2022-11-05T04:53:06.422Z,10.10
2022-11-05T04:55:35.189Z,10.20
2022-11-05T04:58:02.006Z,9.20
2022-11-05T05:00:29.342Z,8.30
2022-11-05T05:02:56.648Z,11.40
2022-11-05T05:05:24.190Z,10.60
2022-11-05T05:07:51.232Z,9.80
2022-11-05T05:10:18.428Z,7.10
2022-11-05T05:12:45.589Z,7.60
2022-11-05T05:15:13.897Z,7.80
2022-11-05T05:17:42.614Z,9.10
2022-11-05T05:20:29.988Z,8.90
2022-11-05T05:22:57.268Z,7.50
2022-11-05T05:25:24.220Z,9.30
2022-11-05T05:27:51.250Z,10.10
2022-11-05T05:30:19.273Z,7.40
2022-11-05T05:32:46.423Z,7.60
2022-11-05T05:35:14.232Z,8.00
2022-11-05T05:37:41.303Z,9.10
2022-11-05T05:40:09.035Z,10.90
2022-11-05T05:42:41.776Z,12.20
2022-11-05T05:45:11.527Z,10.30
2022-11-05T05:47:39.081Z,11.20
2022-11-05T05:50:06.354Z,7.20
2022-11-05T05:52:33.288Z,9.20
2022-11-05T05:55:01.351Z,7.00
2022-11-05T05:57:28.296Z,7.20
2022-11-05T10:18:27.182Z,30.00
2022-11-05T10:20:54.339Z,20.80
2022-11-05T10:23:21.967Z,17.40
2022-11-05T10:25:59.646Z,17.10
2022-11-05T10:28:28.616Z,18.10
2022-11-05T10:31:09.124Z,19.90
2022-11-05T10:33:39.615Z,21.30
2022-11-05T10:36:10.099Z,21.50
2022-11-05T10:38:36.929Z,21.50
2022-11-05T10:47:18.859Z,16.70
2022-11-05T10:49:59.262Z,17.80
2022-11-05T10:52:30.943Z,18.70
2022-11-05T10:55:00.549Z,21.20
2022-11-05T10:57:40.334Z,24.60
2022-11-05T11:00:26.491Z,25.90
2022-11-05T11:02:59.413Z,18.50
2022-11-05T11:05:31.850Z,14.90
2022-11-05T11:08:04.936Z,15.70
2022-11-05T11:10:36.992Z,17.50
2022-11-05T11:13:03.846Z,16.90
2022-11-05T11:15:35.393Z,18.80
2022-11-05T11:18:42.157Z,18.80
2022-11-05T11:21:15.105Z,18.00
2022-11-05T11:23:43.477Z,18.30
2022-11-05T11:26:11.298Z,15.70
2022-11-05T11:28:40.591Z,13.10
2022-11-05T11:33:34.589Z,15.20
2022-11-05T11:36:02.101Z,17.10
2022-11-05T11:38:34.655Z,15.70
2022-11-05T11:41:13.969Z,20.10
2022-11-05T11:43:41.266Z,19.10
2022-11-05T11:46:22.893Z,18.60
2022-11-05T11:48:50.650Z,16.40
2022-11-05T11:51:41.521Z,15.70
2022-11-05T11:54:19.871Z,15.80
2022-11-05T11:56:47.889Z,18.40
2022-11-05T11:59:40.554Z,17.10
2022-11-05T12:02:21.807Z,18.00
2022-11-05T12:05:17.804Z,18.50
2022-11-05T12:07:53.545Z,23.20
2022-11-05T12:10:34.849Z,57.50
2022-11-05T12:13:07.917Z,34.80
2022-11-05T12:16:00.701Z,26.60
2022-11-05T12:19:18.295Z,17.80
2022-11-05T12:22:00.428Z,21.40
2022-11-05T12:24:53.451Z,21.20
2022-11-05T12:28:02.992Z,23.30
2022-11-05T12:30:49.105Z,21.60
2022-11-05T12:33:21.563Z,23.20
2022-11-05T12:36:07.760Z,15.50
2022-11-05T12:38:37.287Z,13.90
2022-11-05T12:41:23.827Z,15.70
2022-11-05T12:43:51.091Z,14.30
2022-11-05T12:46:27.049Z,18.40
2022-11-05T12:49:05.949Z,17.80
2022-11-05T12:51:51.764Z,18.10
2022-11-05T12:54:33.613Z,21.60
2022-11-05T12:57:03.832Z,17.70
2022-11-05T12:59:35.689Z,16.10
2022-11-05T13:02:17.283Z,19.90
2022-11-05T13:04:50.513Z,18.90
2022-11-05T13:07:22.745Z,23.10
2022-11-05T13:10:28.246Z,23.60
2022-11-05T13:13:05.094Z,20.00
2022-11-05T13:18:30.304Z,20.50
2022-11-05T13:20:57.606Z,19.20
2022-11-05T13:23:35.746Z,16.70
2022-11-05T13:26:25.708Z,17.40
2022-11-05T13:29:08.450Z,17.40
2022-11-05T13:31:39.449Z,22.80
2022-11-05T13:34:11.221Z,21.60
2022-11-05T13:37:08.041Z,20.60
2022-11-05T13:40:09.792Z,23.60
2022-11-05T13:42:42.688Z,23.80
2022-11-05T13:45:28.579Z,24.10
2022-11-05T18:09:07.873Z,28.00
2022-11-05T18:11:38.190Z,20.20
2022-11-05T18:14:05.452Z,19.70
2022-11-05T18:16:33.709Z,22.20
2022-11-05T18:19:00.853Z,22.20
2022-11-05T18:21:28.031Z,27.60
2022-11-05T18:23:55.060Z,36.40
2022-11-05T18:26:22.101Z,27.70
2022-11-05T18:28:49.273Z,24.90
2022-11-05T18:31:18.592Z,27.00
2022-11-05T18:33:48.007Z,21.50
2022-11-05T18:38:45.442Z,28.70
2022-11-05T18:41:12.487Z,33.20
2022-11-05T18:43:40.143Z,30.10
2022-11-05T18:46:07.895Z,29.80
2022-11-05T18:48:35.748Z,21.80
2022-11-05T18:51:13.871Z,23.40
2022-11-05T18:53:43.371Z,20.60
2022-11-05T18:56:11.698Z,23.20
2022-11-05T18:58:40.444Z,25.00
2022-11-05T19:01:24.566Z,23.10
2022-11-05T19:03:51.950Z,32.50
2022-11-05T19:06:18.807Z,28.30
2022-11-05T19:08:47.284Z,23.60
2022-11-05T19:11:15.753Z,24.10
2022-11-05T19:13:43.519Z,26.10
2022-11-05T19:16:15.772Z,19.00
2022-11-05T19:18:43.530Z,20.50
2022-11-05T19:21:15.673Z,21.00
2022-11-05T19:23:44.892Z,27.20
2022-11-05T19:26:13.631Z,37.90
2022-11-05T19:28:40.747Z,47.80
2022-11-05T19:31:10.361Z,40.50
2022-11-05T19:33:38.736Z,43.40
2022-11-05T19:36:08.829Z,28.90
2022-11-05T19:38:36.211Z,25.60
2022-11-05T19:41:05.129Z,35.50
2022-11-05T19:43:34.789Z,26.20
2022-11-05T19:46:08.390Z,30.00
2022-11-05T19:48:35.954Z,27.60
2022-11-05T19:51:10.829Z,38.90
2022-11-05T19:53:39.113Z,36.10
2022-11-05T19:56:07.790Z,37.00
2022-11-05T19:58:35.802Z,25.60
2022-11-05T20:01:04.735Z,25.10
2022-11-05T20:03:33.472Z,28.40
2022-11-05T20:06:09.778Z,22.70
2022-11-05T20:08:47.780Z,31.40
2022-11-05T20:11:23.795Z,30.70
2022-11-05T20:13:50.999Z,26.40
2022-11-05T20:16:25.172Z,26.50
2022-11-05T20:18:52.247Z,26.10
2022-11-05T20:21:19.481Z,24.80
2022-11-05T20:23:47.684Z,18.70
2022-11-05T20:26:14.942Z,24.80
2022-11-05T20:28:43.841Z,27.10
2022-11-05T20:31:13.006Z,28.70
2022-11-05T20:33:40.939Z,27.80
2022-11-05T20:36:18.644Z,23.20
2022-11-05T20:38:48.746Z,28.60
2022-11-05T20:41:16.545Z,25.10
2022-11-05T20:46:14.552Z,21.20
2022-11-05T20:48:43.353Z,24.80
2022-11-05T20:51:12.709Z,25.40
2022-11-05T20:53:40.680Z,23.90
2022-11-05T20:56:10.474Z,25.50
2022-11-05T20:58:37.919Z,26.60
2022-11-05T21:01:05.227Z,30.50
2022-11-05T21:03:33.122Z,30.70
2022-11-05T21:06:04.212Z,32.40
2022-11-05T21:08:32.938Z,26.10
2022-11-05T21:11:00.238Z,23.10
2022-11-05T21:13:28.470Z,23.10
2022-11-05T21:15:57.296Z,24.20
2022-11-05T21:18:26.576Z,24.60
2022-11-05T21:20:54.795Z,27.20
2022-11-05T21:23:22.004Z,29.10
2022-11-05T21:25:48.991Z,24.70
2022-11-05T21:28:16.769Z,22.80
2022-11-05T21:30:49.273Z,25.90
2022-11-05T21:33:17.425Z,18.60
2022-11-05T21:35:45.844Z,20.60
2022-11-05T21:38:13.816Z,22.90
2022-11-05T21:40:41.245Z,23.90
2022-11-05T21:43:08.330Z,25.60
2022-11-05T21:45:36.745Z,25.20
2022-11-05T21:48:03.759Z,24.00
2022-11-05T21:50:49.617Z,25.70
2022-11-05T21:53:35.980Z,19.10
2022-11-05T21:56:26.843Z,19.50
2022-11-05T21:59:13.448Z,17.10
2022-11-05T22:01:40.367Z,19.10
2022-11-05T22:04:07.437Z,22.90
2022-11-05T22:06:35.291Z,21.30
2022-11-05T22:09:02.351Z,20.60
2022-11-05T22:11:29.529Z,21.50
2022-11-05T22:13:58.384Z,26.10
2022-11-05T22:16:25.474Z,21.10
2022-11-05T22:18:52.646Z,19.20
2022-11-05T22:21:20.068Z,19.40
2022-11-05T22:23:47.112Z,20.50
2022-11-05T22:26:16.720Z,24.00
2022-11-05T22:28:43.682Z,26.50
2022-11-05T22:31:16.995Z,19.10
2022-11-05T22:33:43.966Z,22.30
2022-11-05T22:36:11.949Z,26.00
2022-11-05T22:38:39.625Z,22.30
2022-11-05T22:41:18.880Z,18.20
2022-11-05T22:43:46.320Z,21.50
2022-11-05T22:46:15.756Z,20.60
2022-11-05T22:48:43.445Z,23.80
2022-11-05T22:51:21.640Z,24.30
2022-11-05T22:53:48.681Z,27.30
2022-11-05T22:56:18.021Z,26.60
2022-11-05T22:58:45.094Z,27.20
2022-11-05T23:01:13.476Z,26.40
2022-11-05T23:03:41.675Z,22.60
2022-11-05T23:06:32.701Z,21.60
2022-11-05T23:09:18.645Z,20.40
2022-11-05T23:11:48.364Z,23.70
2022-11-05T23:14:15.601Z,22.80
2022-11-05T23:17:03.328Z,27.00
2022-11-05T23:19:49.788Z,24.20
2022-11-05T23:22:38.216Z,24.60
2022-11-05T23:25:06.305Z,21.00
2022-11-05T23:27:34.780Z,22.60
2022-11-05T23:30:02.720Z,21.50
2022-11-05T23:32:30.843Z,26.40
2022-11-05T23:34:58.400Z,24.10
2022-11-05T23:37:46.933Z,24.20
2022-11-05T23:40:26.191Z,25.60
2022-11-05T23:43:12.303Z,25.60
2022-11-05T23:45:49.711Z,23.70
2022-11-05T23:48:30.641Z,21.20
2022-11-05T23:51:04.272Z,19.60
2022-11-05T23:53:33.186Z,20.30
2022-11-05T23:56:05.813Z,26.00
2022-11-05T23:58:32.788Z,29.00
